Samantha, Ohio
Current Conditions -  °F | °C
As of 6:54 AM on Friday 31 Oct 2014 (Local Time) from KILN Reporting Station
Overcast Overcast  
Wind Chill: 41°   Ceiling: 5500
Heat Index: 41°   Visibility: 9mi
Dew Point: 37°   Wind: 3mph
Humidity: 86%   Direction: 190°S
Pressure: 29.97"   Gusts: NA
Location:  39.3503°N, 83.5434°W
Report Text: KILN 311054Z AUTO 19003KT 9SM OVC055 05/03 A2997 RMK AO2 SLP165 T00500028
Loading
Personal Weather Stations






























Interactive Weather Map
Tropical Storm Tracking
New forecast layout! Learn more

10-Day Weather Forecast

Advertisements
Track Severe Weather on mobile